Time;durP1;ratioP1;P1;durP2;ratioP2;P2;SDS_P1;SDS_P2;PMS_P1;PMS_P2;Temp;Humidity;BMP_temperature;BMP_pressure;BME280_temperature;BME280_humidity;BME280_pressure;Samples;Min_cycle;Max_cycle;Signal;HPM_P1;HPM_P2
2023/01/23 00:01:53;;;;;;;3.73;2.80;;;13.90;64.50;;;;;;5093796;28;20216;-45
2023/01/23 00:04:26;;;;;;;4.17;2.80;;;13.80;64.70;;;;;;5090729;28;20193;-45
2023/01/23 00:06:56;;;;;;;3.07;2.80;;;13.90;64.50;;;;;;5098206;28;20229;-45
2023/01/23 00:09:26;;;;;;;4.30;3.33;;;13.80;64.50;;;;;;5090951;28;20549;-45
2023/01/23 00:11:57;;;;;;;5.23;2.83;;;13.80;64.50;;;;;;5068615;28;20204;-45
2023/01/23 00:14:27;;;;;;;3.80;3.30;;;13.90;64.50;;;;;;5084641;28;20205;-45
2023/01/23 00:16:58;;;;;;;4.60;3.63;;;13.90;64.50;;;;;;5092085;28;20200;-45
2023/01/23 00:19:31;;;;;;;4.43;3.20;;;13.80;64.50;;;;;;5092869;28;20773;-45
2023/01/23 00:22:01;;;;;;;5.10;2.73;;;13.80;64.40;;;;;;5091264;28;20224;-45
2023/01/23 00:24:32;;;;;;;2.67;2.43;;;13.90;64.60;;;;;;5109564;28;20250;-45
2023/01/23 00:27:05;;;;;;;3.47;3.17;;;13.80;64.60;;;;;;5112505;27;20205;-45
2023/01/23 00:29:35;;;;;;;4.17;2.93;;;13.80;64.50;;;;;;5109284;28;20225;-45
2023/01/23 00:32:01;;;;;;;4.17;3.63;;;13.80;64.60;;;;;;5102345;28;20188;-45
2023/01/23 00:34:33;;;;;;;3.57;2.60;;;13.80;64.50;;;;;;5111057;28;20660;-45
2023/01/23 00:37:03;;;;;;;3.63;3.33;;;13.80;64.60;;;;;;5109823;28;20195;-45
2023/01/23 00:39:31;;;;;;;3.63;3.33;;;13.80;64.50;;;;;;5094020;28;20223;-45
2023/01/23 00:41:58;;;;;;;3.87;3.27;;;13.80;64.50;;;;;;5108012;28;20204;-45
2023/01/23 00:44:30;;;;;;;3.93;3.07;;;13.80;65.20;;;;;;5105859;28;20208;-45
2023/01/23 00:47:00;;;;;;;4.83;3.80;;;13.80;64.50;;;;;;5111544;27;20196;-45
2023/01/23 00:49:30;;;;;;;3.67;3.37;;;13.80;64.60;;;;;;5112509;28;20188;-45
2023/01/23 00:52:00;;;;;;;6.73;3.40;;;13.80;64.60;;;;;;5110110;28;20200;-45
2023/01/23 00:54:28;;;;;;;5.27;3.00;;;13.80;64.60;;;;;;5112606;28;20676;-45
2023/01/23 00:57:04;;;;;;;4.67;3.47;;;13.80;64.60;;;;;;5110990;28;20676;-45
2023/01/23 00:59:36;;;;;;;5.37;3.43;;;13.80;64.60;;;;;;5109060;28;20204;-45
2023/01/23 01:02:06;;;;;;;3.60;3.20;;;13.80;64.60;;;;;;5108150;27;20216;-45
2023/01/23 01:04:34;;;;;;;4.33;3.50;;;13.80;64.70;;;;;;5095143;28;20188;-45
2023/01/23 01:07:04;;;;;;;4.20;3.37;;;13.80;64.50;;;;;;5108480;28;20189;-45
2023/01/23 01:09:33;;;;;;;4.37;3.70;;;13.80;64.60;;;;;;5105643;28;20240;-45
2023/01/23 01:12:02;;;;;;;4.70;3.23;;;13.80;64.60;;;;;;5107147;28;20200;-45
2023/01/23 01:14:32;;;;;;;5.20;3.33;;;13.70;64.50;;;;;;5098534;28;20196;-45
2023/01/23 01:17:02;;;;;;;3.90;3.10;;;13.80;64.60;;;;;;5111858;28;20208;-45
2023/01/23 01:19:31;;;;;;;3.93;3.10;;;13.80;64.60;;;;;;5110937;28;20238;-45
2023/01/23 01:22:00;;;;;;;6.03;3.03;;;13.70;64.60;;;;;;5093007;28;20240;-45
2023/01/23 01:24:29;;;;;;;3.97;3.57;;;13.80;64.80;;;;;;5112761;27;20239;-45
2023/01/23 01:27:00;;;;;;;3.67;3.37;;;13.80;64.80;;;;;;5109718;28;20227;-46
2023/01/23 01:29:32;;;;;;;3.93;3.53;;;13.80;64.70;;;;;;5107999;28;20197;-45
2023/01/23 01:32:04;;;;;;;3.40;2.97;;;13.70;64.70;;;;;;5096449;28;20197;-45
2023/01/23 01:34:34;;;;;;;3.40;3.10;;;13.80;64.70;;;;;;5102831;28;20201;-45
2023/01/23 01:37:04;;;;;;;4.13;3.10;;;13.70;65.30;;;;;;5107634;28;20612;-46
2023/01/23 01:39:36;;;;;;;4.73;3.53;;;13.70;64.70;;;;;;5109042;28;20220;-45
2023/01/23 01:42:07;;;;;;;4.77;3.63;;;13.70;64.70;;;;;;5106656;28;20798;-45
2023/01/23 01:44:54;;;;;;;2.97;2.60;;;13.70;64.70;;;;;;5094299;28;20208;-45
2023/01/23 01:47:22;;;;;;;4.13;3.33;;;13.70;64.60;;;;;;5108698;28;20779;-45
2023/01/23 01:50:00;;;;;;;3.77;3.40;;;13.70;64.70;;;;;;5094116;28;20212;-45
2023/01/23 01:52:40;;;;;;;4.30;3.23;;;13.70;64.70;;;;;;5097562;28;20854;-45
2023/01/23 01:55:09;;;;;;;4.27;3.57;;;13.70;64.60;;;;;;5109551;27;20188;-45
2023/01/23 01:57:44;;;;;;;4.10;3.70;;;13.70;64.70;;;;;;5084418;28;20223;-45
2023/01/23 02:00:19;;;;;;;3.80;3.27;;;13.70;64.80;;;;;;5090010;28;20606;-45
2023/01/23 02:02:54;;;;;;;3.33;3.03;;;13.70;64.60;;;;;;5109033;28;20738;-45
2023/01/23 02:05:29;;;;;;;3.63;3.10;;;13.70;64.60;;;;;;5091099;28;20686;-45
2023/01/23 02:08:29;;;;;;;3.80;3.40;;;13.70;64.70;;;;;;5101471;28;20200;-45
2023/01/23 02:11:02;;;;;;;4.47;3.37;;;13.70;64.70;;;;;;5107401;28;20197;-45
2023/01/23 02:13:37;;;;;;;3.63;3.07;;;13.70;64.60;;;;;;5105040;27;20192;-45
2023/01/23 02:16:13;;;;;;;4.37;3.43;;;13.70;64.70;;;;;;5090918;28;20245;-45
2023/01/23 02:18:48;;;;;;;3.80;3.10;;;13.70;64.70;;;;;;5102620;27;20218;-45
2023/01/23 02:21:23;;;;;;;3.97;2.87;;;13.70;64.90;;;;;;5086351;28;20660;-45
2023/01/23 02:24:21;;;;;;;5.00;3.47;;;13.70;65.50;;;;;;5085941;28;20680;-45
2023/01/23 02:26:51;;;;;;;3.50;3.17;;;13.70;64.70;;;;;;5098876;28;20224;-45
2023/01/23 02:29:21;;;;;;;3.70;2.93;;;13.70;64.70;;;;;;5099013;28;20200;-45
2023/01/23 02:31:54;;;;;;;5.47;3.93;;;13.70;64.70;;;;;;5074884;28;20197;-45
2023/01/23 02:34:28;;;;;;;3.80;3.20;;;13.70;64.60;;;;;;5096955;28;20247;-45
2023/01/23 02:36:58;;;;;;;3.67;3.30;;;13.70;65.20;;;;;;5099765;28;20612;-45
2023/01/23 02:39:26;;;;;;;3.20;2.90;;;13.70;64.60;;;;;;5084421;28;20694;-45
2023/01/23 02:41:55;;;;;;;4.20;3.77;;;13.70;64.70;;;;;;5076128;28;20266;-45
2023/01/23 02:44:31;;;;;;;3.43;3.13;;;13.70;64.60;;;;;;5059546;28;20957;-45
2023/01/23 02:47:10;;;;;;;6.17;4.10;;;13.70;64.70;;;;;;5085315;28;20295;-45
2023/01/23 02:49:41;;;;;;;3.57;3.20;;;13.70;64.60;;;;;;5104446;28;20193;-45
2023/01/23 02:52:13;;;;;;;4.00;3.23;;;13.70;64.70;;;;;;5066901;28;20196;-45
2023/01/23 02:54:42;;;;;;;4.57;3.43;;;13.70;64.80;;;;;;5063534;28;20640;-45
2023/01/23 02:57:13;;;;;;;3.73;3.43;;;13.70;64.70;;;;;;5094225;28;20220;-45
2023/01/23 03:02:34;;;;;;;4.93;3.50;;;13.70;64.60;;;;;;5083152;28;20684;-45
2023/01/23 03:05:06;;;;;;;4.00;3.60;;;13.70;64.80;;;;;;5053776;28;20209;-45
2023/01/23 03:07:35;;;;;;;3.73;3.40;;;13.70;64.70;;;;;;5096951;28;20649;-45
2023/01/23 03:10:04;;;;;;;5.23;3.37;;;13.70;64.70;;;;;;5092950;28;20247;-45
2023/01/23 03:12:33;;;;;;;4.17;2.80;;;13.70;64.80;;;;;;5084496;28;20200;-45
2023/01/23 03:15:04;;;;;;;4.40;3.70;;;13.70;64.80;;;;;;5100412;28;20192;-45
2023/01/23 03:17:34;;;;;;;4.43;3.33;;;13.60;64.70;;;;;;5098132;28;20766;-45
2023/01/23 03:20:05;;;;;;;5.17;3.60;;;13.70;64.90;;;;;;5088884;28;20197;-44
2023/01/23 03:22:37;;;;;;;4.97;3.70;;;13.70;64.80;;;;;;5097953;28;20711;-45
2023/01/23 03:25:06;;;;;;;4.90;3.10;;;13.70;64.80;;;;;;5094828;28;20924;-45
2023/01/23 03:27:38;;;;;;;7.07;3.40;;;13.70;64.80;;;;;;5097656;28;20321;-45
2023/01/23 03:30:14;;;;;;;4.57;3.23;;;13.70;64.80;;;;;;5099862;28;20490;-45
2023/01/23 03:32:47;;;;;;;6.53;4.17;;;13.70;64.70;;;;;;5061954;28;20200;-45
2023/01/23 03:35:19;;;;;;;4.37;3.07;;;13.70;64.80;;;;;;5065254;28;20196;-45
2023/01/23 03:37:48;;;;;;;3.60;3.30;;;13.70;64.80;;;;;;5097646;28;20267;-44
2023/01/23 03:43:12;;;;;;;3.50;2.87;;;13.70;64.70;;;;;;5083245;28;20220;-45
2023/01/23 03:45:42;;;;;;;3.20;2.87;;;13.70;64.70;;;;;;5091156;28;20357;-45
2023/01/23 03:48:15;;;;;;;4.67;3.27;;;13.60;64.70;;;;;;5091979;28;20200;-45
2023/01/23 03:50:48;;;;;;;4.03;3.27;;;13.60;64.70;;;;;;5092080;28;20265;-45
2023/01/23 03:53:20;;;;;;;3.07;2.77;;;13.60;64.70;;;;;;5092849;28;20266;-45
2023/01/23 03:55:49;;;;;;;3.87;3.23;;;13.60;64.70;;;;;;5099884;28;20192;-45
2023/01/23 03:58:21;;;;;;;2.90;2.67;;;13.60;64.70;;;;;;5068804;28;20685;-45
2023/01/23 04:01:08;;;;;;;3.00;2.70;;;13.70;64.70;;;;;;5096492;28;20254;-45
2023/01/23 04:03:50;;;;;;;5.10;3.40;;;13.60;64.50;;;;;;5067371;28;20241;-45
2023/01/23 04:06:23;;;;;;;3.33;2.80;;;13.70;64.70;;;;;;5090906;28;20269;-45
2023/01/23 04:08:55;;;;;;;4.00;3.57;;;13.60;64.50;;;;;;5084123;28;20316;-45
2023/01/23 04:11:27;;;;;;;3.53;3.03;;;13.60;64.70;;;;;;5097746;28;20225;-45
2023/01/23 04:13:56;;;;;;;3.47;3.17;;;13.60;64.60;;;;;;5079587;28;20273;-45
2023/01/23 04:16:24;;;;;;;3.50;3.20;;;13.60;64.50;;;;;;5079480;28;20676;-45
2023/01/23 04:18:53;;;;;;;3.43;3.10;;;13.70;64.60;;;;;;5097821;28;21056;-45
2023/01/23 04:21:24;;;;;;;4.37;3.80;;;13.60;64.40;;;;;;5083152;28;20291;-45
2023/01/23 04:23:53;;;;;;;4.20;3.80;;;13.60;64.60;;;;;;5093771;28;20228;-45
2023/01/23 04:26:26;;;;;;;4.23;3.33;;;13.60;64.40;;;;;;5100922;28;20197;-45
2023/01/23 04:28:58;;;;;;;4.20;3.07;;;13.60;64.40;;;;;;5106197;28;20188;-45
2023/01/23 04:31:26;;;;;;;6.20;3.43;;;13.60;64.50;;;;;;5105791;28;20188;-45
2023/01/23 04:34:03;;;;;;;3.83;3.43;;;13.60;64.30;;;;;;5101411;28;21049;-45
2023/01/23 04:36:32;;;;;;;4.53;3.80;;;13.60;64.40;;;;;;5105653;28;20204;-45
2023/01/23 04:39:02;;;;;;;5.20;3.73;;;13.50;64.30;;;;;;5105747;28;20730;-45
2023/01/23 04:41:33;;;;;;;4.07;3.27;;;13.60;64.40;;;;;;5087508;28;20692;-45
2023/01/23 04:44:20;;;;;;;3.97;3.53;;;13.60;64.40;;;;;;5091044;28;20722;-45
2023/01/23 04:46:53;;;;;;;3.30;3.00;;;13.60;64.40;;;;;;5107683;28;20196;-45
2023/01/23 04:49:23;;;;;;;3.93;3.53;;;13.60;64.40;;;;;;5104916;28;20272;-45
2023/01/23 04:52:02;;;;;;;3.67;3.00;;;13.60;64.40;;;;;;5090182;28;20180;-45
2023/01/23 04:54:31;;;;;;;3.73;3.40;;;13.60;64.40;;;;;;5103598;28;20237;-45
2023/01/23 04:57:14;;;;;;;5.50;3.97;;;13.60;64.40;;;;;;5101925;28;20299;-45
2023/01/23 04:59:46;;;;;;;5.07;3.53;;;13.60;64.30;;;;;;5104939;28;20203;-45
2023/01/23 05:02:16;;;;;;;5.63;4.37;;;13.60;64.30;;;;;;5106119;28;20216;-45
2023/01/23 05:04:48;;;;;;;3.30;2.90;;;13.60;64.30;;;;;;5094355;27;20190;-45
2023/01/23 05:07:19;;;;;;;5.47;3.70;;;13.60;64.40;;;;;;5109783;27;20289;-45
2023/01/23 05:09:48;;;;;;;5.33;3.60;;;13.60;64.40;;;;;;5088731;28;20625;-45
2023/01/23 05:12:19;;;;;;;4.00;3.60;;;13.60;64.30;;;;;;5106213;28;20197;-45
2023/01/23 05:14:50;;;;;;;6.27;3.97;;;13.60;64.30;;;;;;5107307;28;20268;-45
2023/01/23 05:17:21;;;;;;;3.70;3.40;;;13.60;64.30;;;;;;5105830;28;20193;-45
2023/01/23 05:19:54;;;;;;;4.27;3.30;;;13.50;64.20;;;;;;5106915;27;20200;-45
2023/01/23 05:22:25;;;;;;;3.40;3.10;;;13.60;64.40;;;;;;5104517;28;20220;-45
2023/01/23 05:25:01;;;;;;;5.40;3.93;;;13.60;64.30;;;;;;5096883;28;20190;-45
2023/01/23 05:27:30;;;;;;;3.97;3.60;;;13.60;64.40;;;;;;5107446;28;20208;-45
2023/01/23 05:29:57;;;;;;;4.03;3.30;;;13.60;64.30;;;;;;5091242;28;20539;-46
2023/01/23 05:32:28;;;;;;;3.87;3.47;;;13.50;64.20;;;;;;5104753;28;20216;-45
2023/01/23 05:34:59;;;;;;;4.00;3.20;;;13.60;64.30;;;;;;5112364;27;20192;-45
2023/01/23 05:37:30;;;;;;;5.87;3.50;;;13.50;64.30;;;;;;5110221;28;20200;-45
2023/01/23 05:39:59;;;;;;;3.70;2.90;;;13.50;64.30;;;;;;5098416;28;20231;-45
2023/01/23 05:42:31;;;;;;;4.40;3.43;;;13.60;64.40;;;;;;5112989;27;20234;-45
2023/01/23 05:45:02;;;;;;;5.70;3.90;;;13.60;64.40;;;;;;5108919;28;20202;-45
2023/01/23 05:47:32;;;;;;;5.17;3.63;;;13.60;64.30;;;;;;5112508;28;20750;-45
2023/01/23 05:50:08;;;;;;;3.93;3.50;;;13.60;64.30;;;;;;5110068;28;20199;-45
2023/01/23 05:52:38;;;;;;;4.60;3.47;;;13.60;64.20;;;;;;5090594;28;20200;-45
2023/01/23 05:55:09;;;;;;;6.03;3.40;;;13.50;64.10;;;;;;5103458;28;20212;-45
2023/01/23 05:57:39;;;;;;;3.97;3.40;;;13.50;64.10;;;;;;5097754;28;20303;-45
2023/01/23 06:00:11;;;;;;;3.90;3.50;;;13.50;64.00;;;;;;5108284;28;20253;-45
2023/01/23 06:02:41;;;;;;;3.83;3.50;;;13.50;64.00;;;;;;5099240;28;20192;-46
2023/01/23 06:05:10;;;;;;;3.50;3.20;;;13.50;64.00;;;;;;5098018;28;20208;-45
2023/01/23 06:07:39;;;;;;;3.73;3.43;;;13.60;64.00;;;;;;5100447;28;20212;-45
2023/01/23 06:10:08;;;;;;;5.33;4.53;;;13.50;63.90;;;;;;5104938;27;20790;-45
2023/01/23 06:12:37;;;;;;;3.97;3.67;;;13.50;63.90;;;;;;5097110;28;20184;-45
2023/01/23 06:15:08;;;;;;;4.47;4.07;;;13.50;63.90;;;;;;5109219;28;20501;-45
2023/01/23 06:17:37;;;;;;;4.90;4.23;;;13.50;63.80;;;;;;5112029;27;20204;-45
2023/01/23 06:20:07;;;;;;;4.33;3.93;;;13.50;63.90;;;;;;5103902;27;20644;-45
2023/01/23 06:22:35;;;;;;;4.70;4.30;;;13.50;63.80;;;;;;5095875;28;20232;-45
2023/01/23 06:25:08;;;;;;;6.40;4.60;;;13.50;63.80;;;;;;5100324;28;20188;-45
2023/01/23 06:27:36;;;;;;;5.17;4.77;;;13.50;63.80;;;;;;5103441;28;20238;-45
2023/01/23 06:30:05;;;;;;;5.10;4.70;;;13.50;63.90;;;;;;5097798;28;20200;-45
2023/01/23 06:32:34;;;;;;;5.43;4.43;;;13.50;63.80;;;;;;5099971;28;20277;-46
2023/01/23 06:35:05;;;;;;;5.43;4.40;;;13.50;63.90;;;;;;5085490;28;20212;-45
2023/01/23 06:37:37;;;;;;;5.20;4.50;;;13.50;63.90;;;;;;5104400;28;20204;-45
2023/01/23 06:40:12;;;;;;;5.60;4.30;;;13.50;63.80;;;;;;5100525;28;20201;-45
2023/01/23 06:42:42;;;;;;;6.37;4.67;;;13.50;63.90;;;;;;5085568;28;20711;-45
2023/01/23 06:45:14;;;;;;;5.43;4.70;;;13.60;64.00;;;;;;5092697;28;20208;-45
2023/01/23 06:47:44;;;;;;;6.17;5.37;;;13.50;64.20;;;;;;5098568;28;20212;-45
2023/01/23 06:50:15;;;;;;;5.40;4.37;;;13.60;64.10;;;;;;5092204;28;20201;-45
2023/01/23 06:52:45;;;;;;;4.60;4.17;;;13.60;64.10;;;;;;5059432;28;20192;-45
2023/01/23 06:55:26;;;;;;;5.47;4.97;;;13.60;64.10;;;;;;5074534;28;20192;-45
2023/01/23 06:57:54;;;;;;;7.17;4.93;;;13.60;64.20;;;;;;5089589;28;20490;-46
2023/01/23 07:00:27;;;;;;;4.60;4.20;;;13.60;64.10;;;;;;5098662;28;20188;-45
2023/01/23 07:03:02;;;;;;;5.27;4.47;;;13.60;64.10;;;;;;5093718;28;20197;-45
2023/01/23 07:05:38;;;;;;;5.60;4.97;;;13.60;64.10;;;;;;5093959;28;20259;-45
2023/01/23 07:08:10;;;;;;;5.27;4.40;;;13.60;63.90;;;;;;5093126;28;20203;-45
2023/01/23 07:10:48;;;;;;;6.87;4.70;;;13.60;63.90;;;;;;5097374;28;20199;-45
2023/01/23 07:13:18;;;;;;;6.10;5.30;;;13.60;63.90;;;;;;5070908;28;20284;-45
2023/01/23 07:15:48;;;;;;;5.70;4.60;;;13.60;63.70;;;;;;5094397;28;20209;-45
2023/01/23 07:18:17;;;;;;;4.93;4.20;;;13.60;63.80;;;;;;5052190;28;20208;-45
2023/01/23 07:20:48;;;;;;;6.53;4.80;;;13.60;63.70;;;;;;5097074;28;20218;-45
2023/01/23 07:23:18;;;;;;;10.43;5.50;;;13.60;63.60;;;;;;5090571;28;20285;-45
2023/01/23 07:25:51;;;;;;;6.97;4.50;;;13.60;63.50;;;;;;5058251;28;20195;-45
2023/01/23 07:28:19;;;;;;;4.80;4.33;;;13.60;63.50;;;;;;5096258;28;20433;-45
2023/01/23 07:30:59;;;;;;;4.80;4.40;;;13.60;63.50;;;;;;5098011;28;20609;-45
2023/01/23 07:33:30;;;;;;;4.73;4.23;;;13.60;63.50;;;;;;5092836;28;20217;-45
2023/01/23 07:36:04;;;;;;;5.50;4.80;;;13.60;63.50;;;;;;5090924;28;20196;-45
2023/01/23 07:38:34;;;;;;;5.17;4.63;;;13.60;63.40;;;;;;5072857;28;20234;-46
2023/01/23 07:41:05;;;;;;;5.67;5.07;;;13.60;63.50;;;;;;5070744;28;20642;-45
2023/01/23 07:43:36;;;;;;;5.70;5.07;;;13.60;63.40;;;;;;5093283;28;20241;-45
2023/01/23 07:46:05;;;;;;;4.20;3.57;;;13.60;63.40;;;;;;5032485;28;20232;-45
2023/01/23 07:48:36;;;;;;;5.00;4.50;;;13.60;63.40;;;;;;5089163;28;20228;-45
2023/01/23 07:51:06;;;;;;;5.50;4.40;;;13.60;63.30;;;;;;5071806;28;20272;-45
2023/01/23 07:53:36;;;;;;;5.57;5.07;;;13.60;63.30;;;;;;5089793;28;20250;-45
2023/01/23 07:56:05;;;;;;;4.90;4.50;;;13.60;63.30;;;;;;5084664;28;20242;-45
2023/01/23 07:58:38;;;;;;;5.33;4.33;;;13.60;63.20;;;;;;5090230;28;20204;-45
2023/01/23 08:01:12;;;;;;;5.87;4.33;;;13.60;63.20;;;;;;5093794;28;20262;-45
2023/01/23 08:03:41;;;;;;;5.37;4.17;;;13.60;63.10;;;;;;5096381;28;20218;-45
2023/01/23 08:06:14;;;;;;;4.40;4.00;;;13.60;63.20;;;;;;5089930;28;20208;-45
2023/01/23 08:08:42;;;;;;;5.07;3.90;;;13.60;63.30;;;;;;5084678;28;20271;-45
2023/01/23 08:11:13;;;;;;;6.33;4.23;;;13.60;63.40;;;;;;5090039;28;21221;-45
2023/01/23 08:13:48;;;;;;;5.60;4.23;;;13.60;63.50;;;;;;5075024;28;20520;-45
2023/01/23 08:16:24;;;;;;;129.77;23.60;;;13.60;63.80;;;;;;5072296;28;20189;-45
2023/01/23 08:18:56;;;;;;;403.37;78.77;;;13.60;64.20;;;;;;5090374;28;20991;-45
2023/01/23 08:21:23;;;;;;;322.90;73.33;;;13.70;65.50;;;;;;5075855;28;20325;-44
2023/01/23 08:23:55;;;;;;;311.03;68.37;;;13.80;66.70;;;;;;5086238;28;20246;-45
2023/01/23 08:26:23;;;;;;;267.80;62.80;;;14.00;66.50;;;;;;5110083;28;20256;-45
2023/01/23 08:28:55;;;;;;;252.73;61.30;;;14.20;66.40;;;;;;5110977;28;20627;-45
2023/01/23 08:31:24;;;;;;;220.00;52.93;;;14.50;66.00;;;;;;5108589;28;20683;-45
2023/01/23 08:33:52;;;;;;;206.67;50.23;;;14.70;65.50;;;;;;5102505;27;20219;-45
2023/01/23 08:36:21;;;;;;;178.83;46.23;;;14.90;64.60;;;;;;5106353;27;20202;-46
2023/01/23 08:38:55;;;;;;;167.00;41.83;;;15.20;63.90;;;;;;5104518;28;20625;-46
2023/01/23 08:41:24;;;;;;;144.27;40.77;;;15.40;63.20;;;;;;5107936;27;20209;-45
2023/01/23 08:43:56;;;;;;;142.93;40.63;;;15.60;62.60;;;;;;5104574;27;20212;-45
2023/01/23 08:46:28;;;;;;;128.73;36.63;;;15.80;62.10;;;;;;5100923;27;20203;-45
2023/01/23 08:48:57;;;;;;;121.33;33.77;;;16.10;61.70;;;;;;5063199;28;20260;-45
2023/01/23 08:51:28;;;;;;;115.13;32.20;;;16.20;60.80;;;;;;5109319;27;20192;-45
2023/01/23 08:53:55;;;;;;;103.20;30.13;;;16.50;60.40;;;;;;5104275;27;20200;-46
2023/01/23 08:56:25;;;;;;;90.20;26.67;;;16.70;60.10;;;;;;5109185;27;20212;-46
2023/01/23 08:58:56;;;;;;;74.70;26.47;;;16.80;59.40;;;;;;5110988;27;20192;-46
2023/01/23 09:01:27;;;;;;;72.53;23.97;;;17.00;59.00;;;;;;5114395;27;20192;-48
2023/01/23 09:03:57;;;;;;;76.20;21.67;;;17.20;58.40;;;;;;5090222;28;20228;-48
2023/01/23 09:06:31;;;;;;;66.97;21.70;;;17.40;58.50;;;;;;5089357;28;20281;-47
2023/01/23 09:09:01;;;;;;;69.27;19.97;;;17.70;58.20;;;;;;5110601;27;20208;-48
2023/01/23 09:11:32;;;;;;;59.83;19.40;;;17.80;57.80;;;;;;5108455;27;20204;-45
2023/01/23 09:14:01;;;;;;;51.33;17.43;;;18.00;57.40;;;;;;5105900;27;20876;-45
2023/01/23 09:16:29;;;;;;;48.47;16.23;;;18.20;57.10;;;;;;5088867;28;20215;-47
2023/01/23 09:19:02;;;;;;;46.00;16.03;;;18.40;56.60;;;;;;5106035;27;20198;-48
2023/01/23 09:21:34;;;;;;;50.67;15.73;;;18.60;56.60;;;;;;5101502;28;20215;-48
2023/01/23 09:24:03;;;;;;;37.17;13.87;;;18.70;56.40;;;;;;5105245;27;20248;-48
2023/01/23 09:26:33;;;;;;;39.67;14.53;;;18.70;56.20;;;;;;5094304;28;20196;-46
2023/01/23 09:29:01;;;;;;;32.30;12.77;;;18.80;56.30;;;;;;5088041;28;20193;-46
2023/01/23 09:31:33;;;;;;;30.27;11.40;;;18.90;55.70;;;;;;5087613;28;20205;-48
2023/01/23 09:34:03;;;;;;;34.27;11.73;;;18.90;55.20;;;;;;5077883;28;20215;-48
2023/01/23 09:36:37;;;;;;;30.03;11.03;;;19.00;55.00;;;;;;5094282;28;20201;-45
2023/01/23 09:39:11;;;;;;;26.27;10.13;;;19.10;54.70;;;;;;5088297;28;20200;-46
2023/01/23 09:41:43;;;;;;;29.20;10.20;;;19.20;55.10;;;;;;5092526;28;20664;-46
2023/01/23 09:44:35;;;;;;;25.20;9.80;;;19.30;54.60;;;;;;5080439;28;20216;-46
2023/01/23 09:47:17;;;;;;;19.20;8.67;;;19.30;54.60;;;;;;5072174;28;20208;-46
2023/01/23 09:50:06;;;;;;;20.77;7.87;;;19.40;55.20;;;;;;5089779;28;20299;-46
2023/01/23 09:52:48;;;;;;;19.30;8.23;;;19.40;55.20;;;;;;5093446;28;20697;-46
2023/01/23 09:55:37;;;;;;;21.37;8.17;;;19.50;55.20;;;;;;5068692;28;20211;-48
2023/01/23 09:58:25;;;;;;;21.30;7.63;;;19.60;55.20;;;;;;5088100;28;20224;-48
2023/01/23 10:01:00;;;;;;;18.13;7.23;;;19.60;55.00;;;;;;5077224;28;20208;-48
2023/01/23 10:03:31;;;;;;;16.13;7.07;;;19.70;55.00;;;;;;5091730;28;20217;-48
2023/01/23 10:06:24;;;;;;;11.67;6.03;;;19.70;54.70;;;;;;5090427;28;20197;-48
2023/01/23 10:09:32;;;;;;;14.67;6.07;;;19.80;54.30;;;;;;5063138;28;20308;-47
2023/01/23 10:12:34;;;;;;;15.37;6.10;;;19.90;54.50;;;;;;5066693;28;20216;-48
2023/01/23 10:15:21;;;;;;;12.17;5.73;;;19.90;54.20;;;;;;5092187;28;20189;-48
2023/01/23 10:18:06;;;;;;;17.43;6.03;;;20.00;54.50;;;;;;5081388;28;20203;-45
2023/01/23 10:21:16;;;;;;;11.73;4.87;;;20.10;54.00;;;;;;5086878;28;20212;-46
2023/01/23 10:24:22;;;;;;;10.10;5.33;;;20.10;54.30;;;;;;5094383;28;20236;-46
2023/01/23 10:27:00;;;;;;;12.73;5.43;;;20.20;54.10;;;;;;5102309;28;20193;-48
2023/01/23 10:29:46;;;;;;;10.03;4.97;;;20.30;53.90;;;;;;5071203;28;20262;-48
2023/01/23 10:32:37;;;;;;;9.30;4.83;;;20.30;53.80;;;;;;5082699;28;20638;-46
2023/01/23 10:35:21;;;;;;;12.50;4.37;;;20.40;53.90;;;;;;5090708;28;20205;-48
2023/01/23 10:38:05;;;;;;;8.90;4.37;;;20.50;53.60;;;;;;5097149;28;20184;-48
2023/01/23 10:43:25;;;;;;;9.13;4.60;;;20.60;53.50;;;;;;5073217;28;20193;-48
2023/01/23 10:45:56;;;;;;;7.67;3.93;;;20.70;52.50;;;;;;5085560;28;20239;-48
2023/01/23 10:49:00;;;;;;;10.80;4.23;;;20.70;52.90;;;;;;5089018;28;20258;-48
2023/01/23 10:51:44;;;;;;;6.73;3.50;;;20.80;53.30;;;;;;5057664;28;20215;-45
2023/01/23 10:54:27;;;;;;;9.73;4.17;;;20.90;53.10;;;;;;5081591;28;20559;-45
2023/01/23 10:57:09;;;;;;;7.23;3.33;;;20.90;52.80;;;;;;5081494;28;21029;-48
2023/01/23 11:00:18;;;;;;;6.30;3.23;;;20.90;53.20;;;;;;5068641;28;20189;-48
2023/01/23 11:02:47;;;;;;;6.60;3.43;;;20.90;53.30;;;;;;5066881;28;20205;-48
2023/01/23 11:05:44;;;;;;;7.13;3.77;;;20.90;53.30;;;;;;5063440;28;20244;-47
2023/01/23 11:08:31;;;;;;;6.47;3.37;;;21.00;53.30;;;;;;5071771;28;20810;-48
2023/01/23 11:11:14;;;;;;;4.17;3.03;;;21.00;53.10;;;;;;5089867;28;20255;-48
2023/01/23 11:13:47;;;;;;;4.67;3.10;;;21.00;53.00;;;;;;5088549;28;20274;-48
2023/01/23 11:16:21;;;;;;;6.10;3.70;;;21.00;53.30;;;;;;5066398;28;20193;-46
2023/01/23 11:19:10;;;;;;;5.43;3.67;;;21.00;52.50;;;;;;5070427;28;20265;-48
2023/01/23 11:22:01;;;;;;;5.97;4.17;;;21.00;51.10;;;;;;5078292;28;20208;-49
2023/01/23 11:24:35;;;;;;;8.07;4.37;;;20.70;49.90;;;;;;5104857;27;20239;-48
2023/01/23 11:27:15;;;;;;;4.67;4.00;;;20.50;50.30;;;;;;5094537;28;20240;-48
2023/01/23 11:30:05;;;;;;;7.37;5.03;;;20.30;50.20;;;;;;5103863;28;20215;-48
2023/01/23 11:33:26;;;;;;;7.23;4.10;;;20.10;50.30;;;;;;5102772;28;20216;-48
2023/01/23 11:36:16;;;;;;;6.47;4.37;;;20.00;50.30;;;;;;5043600;28;20245;-48
2023/01/23 11:39:02;;;;;;;5.97;4.70;;;19.80;50.50;;;;;;5015317;28;20637;-48
2023/01/23 11:41:34;;;;;;;5.33;4.40;;;19.60;50.60;;;;;;5030844;28;20223;-45
2023/01/23 11:44:12;;;;;;;6.70;5.03;;;19.50;50.80;;;;;;5026249;28;20630;-46
2023/01/23 11:47:12;;;;;;;5.83;4.77;;;19.40;51.00;;;;;;5017244;28;20203;-48
2023/01/23 11:50:20;;;;;;;7.83;4.93;;;19.30;51.20;;;;;;5031205;28;20206;-48
2023/01/23 11:52:59;;;;;;;6.03;4.60;;;19.20;51.70;;;;;;5039028;28;20213;-48
2023/01/23 11:55:58;;;;;;;6.30;4.73;;;19.10;51.60;;;;;;5012258;28;21016;-45
2023/01/23 11:59:07;;;;;;;5.00;4.30;;;19.00;52.00;;;;;;5038343;28;20542;-45
2023/01/23 12:02:13;;;;;;;4.77;4.27;;;18.90;52.10;;;;;;5026009;28;20221;-48
2023/01/23 12:05:19;;;;;;;6.00;4.40;;;18.80;52.30;;;;;;5022937;28;20261;-48
2023/01/23 12:08:25;;;;;;;6.83;4.70;;;18.70;52.60;;;;;;5109499;28;20184;-45
2023/01/23 12:11:18;;;;;;;5.73;4.67;;;18.60;52.80;;;;;;5112520;27;20194;-46
2023/01/23 12:14:20;;;;;;;5.57;4.87;;;18.50;52.90;;;;;;5110493;27;20644;-46
2023/01/23 12:17:11;;;;;;;4.37;3.97;;;18.40;53.00;;;;;;5113952;27;20225;-45
2023/01/23 12:20:01;;;;;;;5.53;4.97;;;18.30;53.10;;;;;;5089349;28;20189;-45
2023/01/23 12:22:59;;;;;;;5.67;4.60;;;18.30;53.20;;;;;;5114375;27;20192;-45
2023/01/23 12:25:40;;;;;;;4.50;4.10;;;18.20;53.40;;;;;;5113521;27;20367;-45
2023/01/23 12:28:58;;;;;;;4.73;4.23;;;18.10;53.30;;;;;;5104533;28;20634;-45
2023/01/23 12:31:36;;;;;;;4.80;3.77;;;18.10;54.00;;;;;;5093307;28;20192;-48
2023/01/23 12:34:13;;;;;;;3.80;3.40;;;18.20;54.50;;;;;;5110278;27;20208;-47
2023/01/23 12:37:13;;;;;;;4.60;3.00;;;18.30;55.10;;;;;;5114066;27;20633;-45
2023/01/23 12:40:05;;;;;;;3.90;3.50;;;18.40;55.30;;;;;;5112472;27;20223;-45
2023/01/23 12:43:00;;;;;;;4.83;2.97;;;18.60;55.30;;;;;;5116846;27;20192;-45
2023/01/23 12:45:30;;;;;;;4.30;2.70;;;18.80;55.50;;;;;;5108291;27;20224;-47
2023/01/23 12:48:39;;;;;;;3.57;2.97;;;18.90;55.50;;;;;;5111250;27;20201;-47
2023/01/23 12:51:22;;;;;;;4.27;2.70;;;19.10;55.20;;;;;;5108735;27;20463;-47
2023/01/23 12:53:57;;;;;;;3.60;2.60;;;19.20;55.20;;;;;;5112339;27;20192;-48
2023/01/23 12:56:35;;;;;;;3.00;2.40;;;19.30;55.20;;;;;;5089465;28;20215;-49
2023/01/23 12:59:30;;;;;;;4.57;2.60;;;19.40;55.00;;;;;;5106822;28;20391;-48
2023/01/23 13:02:31;;;;;;;3.53;2.33;;;19.60;54.80;;;;;;5111688;28;20257;-49
2023/01/23 13:05:33;;;;;;;2.93;2.20;;;19.70;54.70;;;;;;5096329;28;20303;-49
2023/01/23 13:08:20;;;;;;;3.07;2.50;;;19.80;54.40;;;;;;5110700;27;20672;-49
2023/01/23 13:11:41;;;;;;;3.90;2.33;;;20.00;54.10;;;;;;5108048;27;20188;-47
2023/01/23 13:14:30;;;;;;;4.20;2.33;;;20.10;53.80;;;;;;5066631;28;20300;-47
2023/01/23 13:18:13;;;;;;;2.40;2.10;;;20.20;53.60;;;;;;5101479;28;20199;-49
2023/01/23 13:23:45;;;;;;;2.77;2.50;;;20.50;52.90;;;;;;5114090;27;20681;-46
2023/01/23 13:26:19;;;;;;;4.00;2.93;;;20.60;52.90;;;;;;5071501;28;20247;-47
2023/01/23 13:28:56;;;;;;;2.63;2.23;;;20.70;52.70;;;;;;5093915;28;20258;-46
2023/01/23 13:31:41;;;;;;;3.03;2.70;;;20.70;52.40;;;;;;5075083;28;20228;-46
2023/01/23 13:34:19;;;;;;;4.10;2.73;;;20.80;52.10;;;;;;5084137;28;20653;-47
2023/01/23 13:37:20;;;;;;;5.30;2.20;;;20.90;52.10;;;;;;5089209;28;20189;-46
2023/01/23 13:40:19;;;;;;;4.10;2.40;;;21.00;51.70;;;;;;5085759;28;20529;-47
2023/01/23 13:42:50;;;;;;;2.87;2.57;;;21.10;51.70;;;;;;5083583;28;20197;-48